Chatawa, Mississippi
Current Conditions -  °F | °C
As of 6:53 AM on Thursday 18 Dec 2014 (Local Time) from KMCB Reporting Station
Scattered Clouds Scattered Clouds  
Wind Chill: 44°   Ceiling: Unl
Heat Index: 47°   Visibility: 10mi
Dew Point: 40°   Wind: 6mph
Humidity: 77%   Direction: 60°ENE
Pressure: 30.17"   Gusts: NA
Location:  31.06°N, 90.47°W
Report Text: KMCB 181253Z AUTO 06005KT 10SM FEW031 SCT100 08/04 A3017 RMK AO2 SLP215 T00830044
Loading
Personal Weather Stations






























Interactive Weather Map New forecast layout! Learn more

10-Day Weather Forecast

Advertisements
Track Severe Weather on mobile